Denver, Colorado
Traffic Map
Current Weather Conditions
Denver, Colorado
Scattered Clouds
Scattered Clouds
71°
Feels Like: 71°
Wind Chill: 71° Ceiling: Unl
Heat Index: 71° Visibility: 10mi
Dew Point: 46° Wind: 6mph
Humidity: 42% Direction: 240° (WSW)
Pressure: 30.17in Gusts: 0mph
Raw Report DataKBKF 231558Z 24005KT 10SM SCT110 21/08 A3017 RMK AO2A SLP149 T02140080
Traffic Incident Summary
Active as of:
Severity:
Category:
InformationThere was an issue retrieving the traffic information for this location. Please try a different location or try again shortly.
Advertisements
Track Severe Weather on mobile